Time;durP1;ratioP1;P1;durP2;ratioP2;P2;SDS_P1;SDS_P2;PMS_P1;PMS_P2;Temp;Humidity;BMP_temperature;BMP_pressure;BME280_temperature;BME280_humidity;BME280_pressure;Samples;Min_cycle;Max_cycle;Signal;HPM_P1;HPM_P2
2022/07/03 00:02:10;;;;;;;5.50;1.23;;;13.80;99.90;;;;;;5077534;28;20021;-65
2022/07/03 00:04:36;;;;;;;9.02;1.42;;;13.70;99.90;;;;;;5077420;28;20021;-66
2022/07/03 00:07:01;;;;;;;9.20;1.60;;;13.70;99.90;;;;;;5045453;28;20036;-66
2022/07/03 00:09:27;;;;;;;9.90;1.30;;;13.70;99.90;;;;;;5043883;28;20041;-67
2022/07/03 00:11:53;;;;;;;5.97;1.15;;;13.60;99.90;;;;;;5045124;28;20028;-67
2022/07/03 00:14:18;;;;;;;5.85;1.13;;;13.60;99.90;;;;;;5044775;28;20079;-66
2022/07/03 00:16:44;;;;;;;7.28;1.40;;;13.50;99.90;;;;;;5077228;28;20025;-66
2022/07/03 00:19:10;;;;;;;7.97;1.35;;;13.50;99.90;;;;;;5045116;28;20028;-68
2022/07/03 00:21:44;;;;;;;7.93;1.45;;;13.40;99.90;;;;;;5044992;28;20021;-66
2022/07/03 00:24:19;;;;;;;5.35;1.02;;;13.30;99.90;;;;;;5076792;28;20343;-65
2022/07/03 00:26:49;;;;;;;2.50;1.08;;;13.30;99.90;;;;;;5045096;28;20049;-67
2022/07/03 00:29:16;;;;;;;10.02;1.80;;;13.30;99.90;;;;;;5045052;28;20028;-66
2022/07/03 00:31:42;;;;;;;12.85;1.80;;;13.30;99.90;;;;;;5044749;28;20021;-67
2022/07/03 00:34:14;;;;;;;10.27;1.70;;;13.30;99.90;;;;;;5044772;28;20021;-66
2022/07/03 00:36:41;;;;;;;12.10;2.05;;;13.30;99.90;;;;;;5043781;28;20033;-67
2022/07/03 00:39:07;;;;;;;9.07;1.73;;;13.20;99.90;;;;;;5044395;28;20039;-66
2022/07/03 00:41:35;;;;;;;6.43;1.58;;;13.20;99.90;;;;;;5043520;28;20057;-67
2022/07/03 00:44:02;;;;;;;5.53;1.38;;;13.20;99.90;;;;;;5044670;28;20022;-65
2022/07/03 00:46:29;;;;;;;6.68;1.08;;;13.20;99.90;;;;;;5044581;28;20077;-65
2022/07/03 00:48:56;;;;;;;6.97;1.35;;;13.20;99.90;;;;;;5026998;28;20021;-65
2022/07/03 00:51:25;;;;;;;7.40;1.40;;;13.20;99.90;;;;;;5044028;28;20049;-66
2022/07/03 00:53:57;;;;;;;8.52;1.70;;;13.20;99.90;;;;;;5043517;28;20040;-68
2022/07/03 00:56:29;;;;;;;8.70;1.38;;;13.10;99.90;;;;;;5043393;28;20026;-66
2022/07/03 00:58:58;;;;;;;5.45;1.40;;;13.10;99.90;;;;;;5044661;28;20028;-67
2022/07/03 01:01:28;;;;;;;7.90;2.05;;;13.10;99.90;;;;;;5026783;28;20025;-66
2022/07/03 01:04:22;;;;;;;7.25;1.95;;;13.10;99.90;;;;;;5044398;28;20329;-66
2022/07/03 01:07:02;;;;;;;9.05;2.00;;;13.10;99.90;;;;;;5043531;28;20044;-66
2022/07/03 01:09:44;;;;;;;8.13;1.60;;;13.20;99.90;;;;;;5026609;28;20029;-67
2022/07/03 01:12:23;;;;;;;5.10;1.30;;;13.30;99.90;;;;;;5042732;28;20316;-67
2022/07/03 01:15:07;;;;;;;7.28;1.52;;;13.30;99.90;;;;;;5044036;28;20030;-66
2022/07/03 01:17:39;;;;;;;5.60;1.73;;;13.40;99.90;;;;;;5044285;28;20139;-66
2022/07/03 01:20:07;;;;;;;7.65;1.60;;;13.40;99.90;;;;;;5043505;28;20366;-66
2022/07/03 01:22:36;;;;;;;6.45;1.42;;;13.50;99.90;;;;;;5042705;28;20086;-66
2022/07/03 01:25:24;;;;;;;4.85;1.60;;;13.60;99.90;;;;;;5043607;28;20379;-65
2022/07/03 01:27:58;;;;;;;8.48;1.50;;;13.70;99.90;;;;;;5043090;28;20077;-65
2022/07/03 01:30:29;;;;;;;4.20;1.45;;;13.70;99.90;;;;;;5042835;28;20021;-65
2022/07/03 01:33:02;;;;;;;7.88;1.73;;;13.80;99.90;;;;;;5043825;28;20331;-65
2022/07/03 01:35:33;;;;;;;8.50;1.45;;;13.80;99.90;;;;;;5075807;28;20081;-65
2022/07/03 01:38:04;;;;;;;6.97;1.40;;;13.90;99.90;;;;;;5043916;28;20093;-66
2022/07/03 01:40:32;;;;;;;6.03;1.53;;;13.90;99.90;;;;;;5043895;28;20029;-66
2022/07/03 01:43:01;;;;;;;12.35;2.17;;;13.90;99.90;;;;;;5043699;28;20254;-67
2022/07/03 01:45:28;;;;;;;7.20;1.70;;;13.90;99.90;;;;;;5041868;28;20025;-66
2022/07/03 01:47:57;;;;;;;4.60;1.10;;;13.90;99.90;;;;;;5043603;28;20021;-66
2022/07/03 01:50:24;;;;;;;4.60;1.23;;;14.10;99.90;;;;;;5058763;28;20076;-67
2022/07/03 01:52:52;;;;;;;7.97;1.40;;;14.10;99.90;;;;;;5040917;28;20049;-66
2022/07/03 01:55:20;;;;;;;9.57;1.20;;;14.30;99.90;;;;;;5075519;28;20076;-66
2022/07/03 01:57:48;;;;;;;8.00;1.27;;;14.30;99.90;;;;;;5043671;28;20067;-65
2022/07/03 02:00:17;;;;;;;8.40;1.17;;;14.30;99.90;;;;;;5043618;28;20026;-66
2022/07/03 02:02:51;;;;;;;3.50;1.23;;;14.30;99.90;;;;;;5043194;28;20300;-65
2022/07/03 02:05:32;;;;;;;6.50;1.08;;;14.30;99.90;;;;;;5074074;28;20089;-66
2022/07/03 02:08:22;;;;;;;5.00;1.27;;;14.30;99.90;;;;;;5075099;28;20024;-65
2022/07/03 02:11:10;;;;;;;9.50;1.00;;;14.30;99.90;;;;;;5070594;28;20025;-66
2022/07/03 02:13:44;;;;;;;6.43;1.10;;;14.30;99.90;;;;;;5055552;28;20362;-67
2022/07/03 02:16:16;;;;;;;9.00;1.00;;;14.30;99.90;;;;;;5043466;28;20021;-66
2022/07/03 02:18:43;;;;;;;8.35;1.50;;;14.20;99.90;;;;;;5043178;28;20033;-66
2022/07/03 02:21:19;;;;;;;4.07;0.70;;;14.30;99.90;;;;;;5042393;28;20025;-66
2022/07/03 02:24:15;;;;;;;6.18;0.93;;;14.30;99.90;;;;;;5074753;28;20022;-65
2022/07/03 02:26:42;;;;;;;2.17;0.80;;;14.30;99.90;;;;;;5042154;28;20277;-66
2022/07/03 02:29:14;;;;;;;3.88;0.90;;;14.30;99.90;;;;;;5043365;28;20025;-65
2022/07/03 02:31:53;;;;;;;4.30;0.65;;;14.30;99.90;;;;;;5074981;28;20017;-65
2022/07/03 02:34:23;;;;;;;3.80;0.95;;;14.30;99.90;;;;;;5046787;28;20092;-65
2022/07/03 02:36:53;;;;;;;6.45;1.50;;;14.30;99.90;;;;;;5062607;28;20220;-65
2022/07/03 02:39:44;;;;;;;4.97;1.27;;;14.30;99.90;;;;;;5047015;28;20355;-65
2022/07/03 02:42:30;;;;;;;6.63;0.80;;;14.20;99.90;;;;;;5059347;28;20030;-65
2022/07/03 02:44:59;;;;;;;9.68;1.10;;;14.20;99.90;;;;;;5046952;28;20022;-65
2022/07/03 02:48:05;;;;;;;4.10;0.80;;;14.10;99.90;;;;;;5061984;28;20022;-66
2022/07/03 02:50:33;;;;;;;8.27;1.05;;;14.10;99.90;;;;;;5045718;28;20211;-64
2022/07/03 02:53:07;;;;;;;4.38;1.00;;;14.10;99.90;;;;;;5045772;28;20049;-66
2022/07/03 02:55:50;;;;;;;5.63;0.88;;;14.00;99.90;;;;;;5061635;28;20076;-66
2022/07/03 02:58:44;;;;;;;5.55;1.00;;;14.00;99.90;;;;;;5062099;28;20212;-66
2022/07/03 03:01:20;;;;;;;2.58;0.65;;;14.00;99.90;;;;;;5058366;28;20092;-66
2022/07/03 03:03:54;;;;;;;4.13;1.00;;;13.90;99.90;;;;;;5046470;28;20301;-67
2022/07/03 03:06:21;;;;;;;2.70;0.75;;;13.90;99.90;;;;;;5046144;28;20021;-65
2022/07/03 03:08:49;;;;;;;3.83;0.80;;;14.00;99.90;;;;;;5046554;28;20025;-66
2022/07/03 03:11:28;;;;;;;8.77;1.05;;;14.00;99.90;;;;;;5045388;28;20028;-65
2022/07/03 03:13:57;;;;;;;3.67;0.73;;;14.00;99.90;;;;;;5061853;28;20300;-66
2022/07/03 03:16:23;;;;;;;2.60;0.73;;;14.00;99.90;;;;;;5078064;28;20022;-66
2022/07/03 03:18:49;;;;;;;1.63;0.60;;;13.90;99.90;;;;;;5046492;28;20031;-65
2022/07/03 03:21:18;;;;;;;4.85;0.70;;;13.90;99.90;;;;;;5046306;28;20045;-65
2022/07/03 03:23:50;;;;;;;3.03;0.70;;;13.80;99.90;;;;;;5045573;28;20067;-65
2022/07/03 03:26:33;;;;;;;2.83;0.70;;;13.80;99.90;;;;;;5060734;28;20216;-66
2022/07/03 03:28:59;;;;;;;4.20;0.80;;;13.80;99.90;;;;;;5046301;28;20029;-66
2022/07/03 03:31:26;;;;;;;4.25;0.60;;;13.80;99.90;;;;;;5078129;28;20096;-67
2022/07/03 03:33:53;;;;;;;3.75;0.70;;;13.80;99.90;;;;;;5046019;28;20224;-66
2022/07/03 03:36:20;;;;;;;2.75;0.80;;;13.80;99.90;;;;;;5044737;28;20141;-66
2022/07/03 03:38:47;;;;;;;2.35;0.95;;;13.90;99.90;;;;;;5044928;28;20040;-66
2022/07/03 03:41:13;;;;;;;6.20;1.10;;;14.00;99.90;;;;;;5045852;28;20025;-66
2022/07/03 03:43:39;;;;;;;5.07;1.00;;;14.00;99.90;;;;;;5045276;28;20131;-66
2022/07/03 03:46:05;;;;;;;1.58;0.65;;;13.90;99.90;;;;;;5044743;28;20026;-66
2022/07/03 03:48:33;;;;;;;5.85;0.80;;;14.00;99.90;;;;;;5044776;28;20067;-66
2022/07/03 03:50:59;;;;;;;7.38;1.10;;;13.90;99.90;;;;;;5045641;28;20018;-66
2022/07/03 03:53:26;;;;;;;3.35;0.95;;;13.90;99.90;;;;;;5045240;28;20213;-66
2022/07/03 03:56:14;;;;;;;2.08;0.77;;;13.90;99.90;;;;;;5043857;28;20064;-68
2022/07/03 03:58:41;;;;;;;3.50;0.90;;;13.90;99.90;;;;;;5044698;28;20037;-66
2022/07/03 04:01:09;;;;;;;3.47;0.98;;;13.90;99.90;;;;;;5045591;28;20022;-67
2022/07/03 04:03:36;;;;;;;3.80;0.77;;;13.90;99.90;;;;;;5044356;28;20209;-67
2022/07/03 04:06:02;;;;;;;3.25;0.80;;;14.00;99.90;;;;;;5044440;28;20355;-65
2022/07/03 04:08:28;;;;;;;5.38;0.93;;;14.00;99.90;;;;;;5045486;28;20256;-66
2022/07/03 04:10:54;;;;;;;8.15;1.48;;;14.00;99.90;;;;;;5045467;28;20182;-68
2022/07/03 04:13:21;;;;;;;1.83;0.68;;;14.10;99.90;;;;;;5044023;28;20100;-67
2022/07/03 04:15:48;;;;;;;1.73;0.60;;;14.10;99.90;;;;;;5043920;28;20084;-65
2022/07/03 04:18:13;;;;;;;4.85;0.77;;;14.10;99.90;;;;;;5044088;28;20037;-67
2022/07/03 04:20:39;;;;;;;3.78;1.02;;;14.20;99.90;;;;;;5045175;28;20312;-67
2022/07/03 04:23:05;;;;;;;3.85;0.60;;;14.20;99.90;;;;;;5045010;28;20029;-66
2022/07/03 04:25:31;;;;;;;4.13;0.80;;;14.30;99.90;;;;;;5044720;28;20068;-67
2022/07/03 04:27:56;;;;;;;1.48;0.70;;;14.30;99.90;;;;;;5045152;28;20037;-67
2022/07/03 04:30:22;;;;;;;4.45;0.90;;;14.30;99.90;;;;;;5044903;28;20017;-66
2022/07/03 04:32:49;;;;;;;9.73;1.45;;;14.30;99.90;;;;;;5044975;28;20060;-66
2022/07/03 04:35:15;;;;;;;4.05;0.90;;;14.40;99.90;;;;;;5044138;28;20357;-67
2022/07/03 04:37:42;;;;;;;5.45;1.20;;;14.50;99.90;;;;;;5044615;28;20331;-67
2022/07/03 04:40:08;;;;;;;3.17;1.00;;;14.60;99.90;;;;;;5044801;28;20021;-67
2022/07/03 04:42:35;;;;;;;2.53;0.90;;;14.80;99.90;;;;;;5044864;28;20025;-66
2022/07/03 04:45:01;;;;;;;5.30;1.15;;;15.00;99.90;;;;;;5076510;28;20030;-66
2022/07/03 04:47:27;;;;;;;6.68;1.02;;;15.10;99.90;;;;;;5043401;28;20056;-68
2022/07/03 04:49:52;;;;;;;1.70;0.70;;;15.20;99.90;;;;;;5044500;28;20308;-67
2022/07/03 04:52:18;;;;;;;3.33;0.85;;;15.10;99.90;;;;;;5076634;28;20332;-66
2022/07/03 04:54:44;;;;;;;5.35;0.88;;;15.10;99.90;;;;;;5073861;28;20092;-68
2022/07/03 04:57:09;;;;;;;4.32;0.88;;;15.10;99.90;;;;;;5044216;28;20028;-66
2022/07/03 04:59:35;;;;;;;3.10;0.90;;;14.90;99.90;;;;;;5043454;28;20107;-67
2022/07/03 05:02:01;;;;;;;2.85;1.10;;;14.90;99.90;;;;;;5044301;28;20029;-67
2022/07/03 05:04:27;;;;;;;3.30;0.90;;;14.90;99.90;;;;;;5076365;28;20323;-66
2022/07/03 05:06:52;;;;;;;3.45;0.80;;;14.90;99.90;;;;;;5044308;28;20072;-68
2022/07/03 05:09:18;;;;;;;4.65;1.52;;;14.90;99.90;;;;;;5044424;28;20194;-67
2022/07/03 05:11:44;;;;;;;4.38;0.95;;;14.90;99.90;;;;;;5076328;28;20048;-67
2022/07/03 05:14:10;;;;;;;7.68;1.25;;;14.90;99.90;;;;;;5076136;28;20025;-66
2022/07/03 05:16:36;;;;;;;4.07;0.90;;;14.90;99.90;;;;;;5043586;28;20044;-67
2022/07/03 05:19:02;;;;;;;5.50;0.98;;;15.00;99.90;;;;;;5044204;28;20017;-66
2022/07/03 05:21:28;;;;;;;4.18;0.90;;;15.00;99.90;;;;;;5044159;28;20084;-66
2022/07/03 05:23:53;;;;;;;1.90;0.82;;;15.00;99.90;;;;;;5043567;28;20017;-66
2022/07/03 05:26:19;;;;;;;2.75;1.17;;;15.10;99.90;;;;;;5043753;28;20060;-66
2022/07/03 05:28:45;;;;;;;3.17;0.90;;;15.10;99.90;;;;;;5043968;28;20021;-66
2022/07/03 05:31:11;;;;;;;3.17;1.02;;;15.00;99.90;;;;;;5075962;28;20025;-66
2022/07/03 05:33:37;;;;;;;6.05;1.30;;;15.00;99.90;;;;;;5044015;28;20025;-68
2022/07/03 05:36:03;;;;;;;4.80;1.10;;;15.00;99.90;;;;;;5043420;28;20021;-66
2022/07/03 05:41:15;;;;;;;5.50;1.00;;;15.00;99.90;;;;;;5042649;28;20017;-65
2022/07/03 05:43:40;;;;;;;3.28;0.90;;;15.10;99.90;;;;;;5043737;28;20037;-67
2022/07/03 05:46:06;;;;;;;5.07;1.52;;;15.10;99.90;;;;;;5043423;28;20040;-66
2022/07/03 05:48:32;;;;;;;4.40;0.95;;;15.10;99.90;;;;;;5043871;28;20036;-66
2022/07/03 05:50:58;;;;;;;6.22;1.02;;;15.00;99.90;;;;;;5043426;28;20052;-67
2022/07/03 05:53:23;;;;;;;3.00;0.82;;;15.10;99.90;;;;;;5042313;28;20213;-66
2022/07/03 05:55:49;;;;;;;3.33;0.82;;;15.10;99.90;;;;;;5042100;28;20025;-67
2022/07/03 05:58:16;;;;;;;1.80;0.80;;;15.20;99.90;;;;;;5043750;28;20031;-67
2022/07/03 06:00:43;;;;;;;3.85;0.85;;;15.20;99.90;;;;;;5043378;28;20224;-66
2022/07/03 06:03:09;;;;;;;6.75;1.00;;;15.10;99.90;;;;;;5043594;28;20033;-66
2022/07/03 06:05:35;;;;;;;3.60;0.82;;;15.10;99.90;;;;;;5042299;28;20017;-66
2022/07/03 06:08:00;;;;;;;4.60;1.10;;;15.10;99.90;;;;;;5029869;28;20181;-66
2022/07/03 06:10:27;;;;;;;6.03;0.98;;;15.10;99.90;;;;;;5047798;28;20033;-67
2022/07/03 06:12:53;;;;;;;4.00;0.93;;;15.20;99.90;;;;;;5047590;28;20017;-67
2022/07/03 06:15:19;;;;;;;5.97;1.30;;;15.20;99.90;;;;;;5047199;28;20021;-66
2022/07/03 06:17:45;;;;;;;6.65;1.13;;;15.30;99.90;;;;;;5046421;28;20194;-66
2022/07/03 06:20:11;;;;;;;4.18;1.20;;;15.40;99.90;;;;;;5047216;28;20036;-68
2022/07/03 06:22:38;;;;;;;4.97;0.98;;;15.50;99.90;;;;;;5047339;28;20022;-67
2022/07/03 06:25:04;;;;;;;7.30;1.30;;;15.60;99.90;;;;;;5046829;28;20021;-66
2022/07/03 06:27:30;;;;;;;4.60;1.20;;;15.70;99.90;;;;;;5046207;28;20293;-67
2022/07/03 06:29:56;;;;;;;6.25;1.23;;;15.70;99.90;;;;;;5046074;28;20039;-66
2022/07/03 06:32:21;;;;;;;7.35;1.48;;;15.80;99.90;;;;;;5047002;28;20025;-67
2022/07/03 06:34:48;;;;;;;5.75;1.10;;;16.00;99.90;;;;;;5079108;28;20048;-67
2022/07/03 06:37:13;;;;;;;7.03;1.60;;;16.10;99.90;;;;;;5046738;28;20088;-67
2022/07/03 06:39:39;;;;;;;5.20;1.33;;;16.20;99.90;;;;;;5046076;28;20072;-66
2022/07/03 06:42:05;;;;;;;5.07;1.50;;;16.30;99.90;;;;;;5045941;28;20296;-66
2022/07/03 06:44:31;;;;;;;2.63;1.02;;;16.40;99.90;;;;;;5045501;28;20021;-66
2022/07/03 06:46:57;;;;;;;4.72;1.38;;;16.40;99.90;;;;;;5046765;28;20093;-66
2022/07/03 06:49:23;;;;;;;3.92;1.23;;;16.30;99.90;;;;;;5046556;28;20071;-66
2022/07/03 06:51:49;;;;;;;4.80;1.27;;;16.40;99.90;;;;;;5045505;28;20055;-66
2022/07/03 06:54:15;;;;;;;5.15;1.42;;;16.50;99.90;;;;;;5046599;28;20033;-66
2022/07/03 06:56:42;;;;;;;10.77;2.42;;;16.70;99.90;;;;;;5027248;28;20076;-67
2022/07/03 06:59:08;;;;;;;6.35;1.52;;;16.80;99.90;;;;;;5046817;28;20025;-66
2022/07/03 07:01:34;;;;;;;6.82;1.92;;;16.90;99.90;;;;;;5045686;28;20048;-66
2022/07/03 07:04:00;;;;;;;7.57;1.75;;;17.00;99.90;;;;;;5046599;28;20031;-68
2022/07/03 07:06:26;;;;;;;7.63;1.63;;;17.00;99.90;;;;;;5045455;28;20025;-66
2022/07/03 07:08:51;;;;;;;10.75;2.03;;;17.00;99.90;;;;;;5046513;28;20060;-69
2022/07/03 07:11:17;;;;;;;9.10;1.60;;;16.90;99.70;;;;;;5046541;28;20032;-67
2022/07/03 07:13:43;;;;;;;4.45;1.63;;;16.80;99.90;;;;;;5046419;28;20029;-65
2022/07/03 07:16:08;;;;;;;5.50;1.33;;;16.80;99.90;;;;;;5028638;28;20025;-66
2022/07/03 07:18:34;;;;;;;9.20;1.80;;;16.70;99.90;;;;;;5045434;28;20051;-67
2022/07/03 07:21:00;;;;;;;10.65;1.98;;;16.70;99.90;;;;;;5046466;28;20017;-66
2022/07/03 07:23:26;;;;;;;9.93;1.98;;;16.80;99.90;;;;;;5044908;28;20080;-65
2022/07/03 07:25:52;;;;;;;3.45;1.67;;;16.80;99.90;;;;;;5045017;28;20021;-67
2022/07/03 07:28:18;;;;;;;8.45;1.90;;;16.90;99.90;;;;;;5045965;28;20305;-68
2022/07/03 07:30:44;;;;;;;5.03;1.42;;;17.00;99.90;;;;;;5046278;28;20045;-69
2022/07/03 07:33:10;;;;;;;7.20;1.92;;;17.00;99.90;;;;;;5045001;28;20025;-66
2022/07/03 07:35:36;;;;;;;7.82;1.83;;;17.30;99.90;;;;;;5045546;28;20091;-66
2022/07/03 07:38:02;;;;;;;7.50;1.77;;;17.40;99.30;;;;;;5044715;28;20117;-67
2022/07/03 07:40:27;;;;;;;5.38;1.60;;;17.60;98.80;;;;;;5045886;28;20020;-66
2022/07/03 07:42:53;;;;;;;7.70;1.77;;;17.70;98.70;;;;;;5044962;28;20305;-67
2022/07/03 07:45:19;;;;;;;5.47;1.80;;;17.80;98.50;;;;;;5044554;28;20304;-67
2022/07/03 07:47:45;;;;;;;6.80;1.60;;;17.80;98.30;;;;;;5045310;28;20261;-68
2022/07/03 07:50:11;;;;;;;4.40;1.67;;;17.90;98.20;;;;;;5077870;28;20092;-66
2022/07/03 07:52:36;;;;;;;7.22;2.22;;;17.80;98.30;;;;;;5045970;28;20050;-66
2022/07/03 07:55:03;;;;;;;5.82;1.90;;;17.70;97.90;;;;;;5045269;28;20041;-66
2022/07/03 07:57:37;;;;;;;6.63;2.42;;;17.60;97.80;;;;;;5044090;28;20033;-67
2022/07/03 08:00:09;;;;;;;6.60;2.42;;;17.60;98.00;;;;;;5045803;28;20013;-66
2022/07/03 08:05:35;;;;;;;11.75;2.53;;;17.70;98.30;;;;;;5058380;28;20048;-68
2022/07/03 08:08:08;;;;;;;9.20;3.13;;;18.00;97.40;;;;;;5045353;28;20022;-67
2022/07/03 08:10:40;;;;;;;10.68;3.03;;;18.20;96.90;;;;;;5044286;28;20013;-66
2022/07/03 08:13:06;;;;;;;7.60;3.28;;;18.30;96.90;;;;;;5077706;28;20300;-66
2022/07/03 08:15:32;;;;;;;6.85;2.70;;;18.30;96.70;;;;;;5076946;28;20021;-68
2022/07/03 08:17:58;;;;;;;6.32;3.00;;;18.40;96.60;;;;;;5045210;28;20033;-67
2022/07/03 08:20:23;;;;;;;8.15;3.20;;;18.30;96.40;;;;;;5044062;28;20279;-67
2022/07/03 08:22:49;;;;;;;11.07;3.10;;;18.20;96.60;;;;;;5045135;28;20220;-66
2022/07/03 08:25:15;;;;;;;8.13;2.88;;;18.20;96.50;;;;;;5044682;28;20067;-67
2022/07/03 08:27:41;;;;;;;5.47;1.90;;;18.20;96.50;;;;;;5077143;28;20316;-66
2022/07/03 08:30:08;;;;;;;11.25;2.80;;;18.40;96.90;;;;;;5044184;28;20185;-66
2022/07/03 08:32:33;;;;;;;5.80;2.15;;;18.40;96.70;;;;;;5044938;28;20216;-67
2022/07/03 08:34:59;;;;;;;5.05;1.92;;;18.40;96.80;;;;;;5044828;28;20036;-66
2022/07/03 08:37:26;;;;;;;8.32;2.30;;;18.30;96.80;;;;;;5044698;28;20017;-68
2022/07/03 08:39:52;;;;;;;8.75;2.05;;;18.30;96.70;;;;;;5044757;28;20112;-67
2022/07/03 08:42:19;;;;;;;5.32;1.92;;;18.40;96.50;;;;;;5044809;28;20017;-66
2022/07/03 08:44:46;;;;;;;8.48;2.35;;;18.50;96.40;;;;;;5043700;28;20014;-66
2022/07/03 08:47:13;;;;;;;6.65;1.95;;;18.70;95.70;;;;;;5043554;28;20071;-68
2022/07/03 08:49:41;;;;;;;5.25;1.88;;;18.90;95.80;;;;;;5043497;28;20075;-66
2022/07/03 08:52:07;;;;;;;5.63;1.38;;;19.10;95.40;;;;;;5043119;28;20412;-66
2022/07/03 08:54:33;;;;;;;4.10;1.23;;;19.10;95.20;;;;;;5044188;28;20121;-66
2022/07/03 08:57:01;;;;;;;8.20;1.70;;;19.00;94.90;;;;;;5043337;28;20028;-68
2022/07/03 08:59:36;;;;;;;5.25;1.60;;;18.90;95.20;;;;;;5041908;28;20052;-67
2022/07/03 09:02:04;;;;;;;8.85;2.13;;;18.80;95.20;;;;;;5043150;28;20096;-66
2022/07/03 09:04:31;;;;;;;6.85;2.08;;;18.70;95.30;;;;;;5026438;28;20033;-68
2022/07/03 09:06:58;;;;;;;7.68;2.55;;;18.80;95.00;;;;;;5043227;28;20029;-68
2022/07/03 09:09:24;;;;;;;7.75;2.03;;;18.90;95.00;;;;;;5043252;28;20029;-67
2022/07/03 09:11:51;;;;;;;7.05;2.00;;;19.10;95.00;;;;;;5044298;28;20048;-67
2022/07/03 09:14:16;;;;;;;4.50;1.80;;;19.30;94.50;;;;;;5043055;28;20197;-67
2022/07/03 09:16:42;;;;;;;4.35;1.85;;;19.50;94.30;;;;;;5044331;28;20032;-67
2022/07/03 09:19:08;;;;;;;8.00;3.03;;;19.60;94.20;;;;;;5043029;28;20037;-67
2022/07/03 09:21:37;;;;;;;7.05;2.78;;;19.60;93.80;;;;;;5043340;28;20092;-68
2022/07/03 09:24:05;;;;;;;9.52;2.70;;;19.40;94.40;;;;;;5042638;28;20220;-67
2022/07/03 09:26:31;;;;;;;9.93;2.58;;;19.40;94.70;;;;;;5043279;28;20215;-69
2022/07/03 09:28:57;;;;;;;7.45;1.80;;;19.30;94.90;;;;;;5043141;28;20029;-68
2022/07/03 09:31:25;;;;;;;3.42;1.30;;;19.10;95.40;;;;;;5044707;28;20033;-68
2022/07/03 09:34:02;;;;;;;5.95;1.40;;;18.90;96.00;;;;;;5076414;28;20033;-68
2022/07/03 09:36:48;;;;;;;10.30;1.60;;;18.50;96.70;;;;;;5060296;28;20025;-66
2022/07/03 09:39:30;;;;;;;10.27;1.50;;;18.10;98.00;;;;;;5073045;28;20033;-68
2022/07/03 09:41:59;;;;;;;10.60;1.48;;;18.00;99.00;;;;;;5046671;28;20022;-69
2022/07/03 09:44:33;;;;;;;6.97;1.80;;;17.90;99.60;;;;;;5052985;28;20025;-67
2022/07/03 09:47:15;;;;;;;7.35;1.40;;;17.90;99.80;;;;;;5052999;28;20364;-66
2022/07/03 09:50:02;;;;;;;8.35;1.80;;;17.90;99.90;;;;;;5052447;28;20101;-66
2022/07/03 09:52:38;;;;;;;10.60;2.55;;;18.10;99.90;;;;;;5051490;28;20053;-68
2022/07/03 09:55:17;;;;;;;8.88;2.03;;;18.30;99.90;;;;;;5081137;28;20248;-67
2022/07/03 09:57:59;;;;;;;7.28;1.48;;;18.50;99.20;;;;;;5064720;28;20217;-65
2022/07/03 10:00:28;;;;;;;6.90;1.70;;;18.60;98.60;;;;;;5073641;28;20140;-68
2022/07/03 10:03:07;;;;;;;5.45;1.38;;;18.50;98.90;;;;;;5043632;28;20013;-68
2022/07/03 10:05:35;;;;;;;7.35;1.73;;;18.70;98.70;;;;;;5043369;28;20355;-68
2022/07/03 10:08:04;;;;;;;7.47;1.67;;;18.80;98.50;;;;;;5058912;28;20028;-67
2022/07/03 10:10:32;;;;;;;6.78;1.45;;;18.90;98.40;;;;;;5043482;28;20024;-67
2022/07/03 10:12:59;;;;;;;7.18;1.50;;;19.10;98.50;;;;;;5075494;28;20231;-67
2022/07/03 10:15:26;;;;;;;6.32;1.30;;;19.40;97.30;;;;;;5043375;28;20027;-68
2022/07/03 10:17:56;;;;;;;5.57;1.52;;;19.60;96.90;;;;;;5043343;28;20088;-68
2022/07/03 10:20:46;;;;;;;7.00;1.52;;;20.00;95.80;;;;;;5043395;28;20240;-67
2022/07/03 10:23:14;;;;;;;6.38;1.58;;;20.20;95.40;;;;;;5055106;28;20068;-68
2022/07/03 10:25:41;;;;;;;4.47;1.20;;;20.20;95.00;;;;;;5075111;28;20299;-67
2022/07/03 10:28:08;;;;;;;7.63;1.50;;;20.20;95.10;;;;;;5042086;28;20241;-67
2022/07/03 10:30:34;;;;;;;6.35;1.20;;;20.20;94.80;;;;;;5043302;28;20029;-67
2022/07/03 10:33:02;;;;;;;9.95;1.60;;;20.30;94.90;;;;;;5043282;28;20252;-68
2022/07/03 10:35:33;;;;;;;6.70;1.20;;;20.60;94.40;;;;;;5043124;28;20132;-68
2022/07/03 10:38:18;;;;;;;5.30;1.50;;;20.90;93.80;;;;;;5043185;28;20037;-68
2022/07/03 10:46:55;;;;;;;6.50;1.80;;;21.20;93.40;;;;;;5042230;28;20208;-69
2022/07/03 10:49:25;;;;;;;6.20;2.10;;;20.80;93.90;;;;;;5043143;28;20025;-68
2022/07/03 10:51:53;;;;;;;6.70;1.98;;;20.20;94.50;;;;;;5042696;28;20378;-68
2022/07/03 10:54:24;;;;;;;9.43;2.10;;;19.60;95.30;;;;;;5027967;28;20254;-68
2022/07/03 10:57:13;;;;;;;8.73;2.53;;;19.40;96.00;;;;;;5045674;28;20024;-68
2022/07/03 11:00:00;;;;;;;8.90;2.00;;;19.30;95.90;;;;;;5044030;28;20038;-69
2022/07/03 11:02:39;;;;;;;11.30;2.30;;;19.30;95.90;;;;;;5029175;28;20018;-69
2022/07/03 11:05:12;;;;;;;7.95;2.10;;;19.40;95.80;;;;;;5045087;28;20088;-69
2022/07/03 11:08:06;;;;;;;5.00;1.80;;;19.60;95.30;;;;;;5029110;28;20025;-68
2022/07/03 11:10:33;;;;;;;7.63;2.03;;;19.80;94.60;;;;;;5032572;28;20025;-67
2022/07/03 11:13:06;;;;;;;4.32;1.80;;;19.80;94.80;;;;;;5028950;28;20028;-67
2022/07/03 11:15:45;;;;;;;5.20;1.83;;;19.80;94.80;;;;;;5028465;28;20198;-68
2022/07/03 11:18:23;;;;;;;3.70;1.65;;;20.10;94.20;;;;;;5046482;28;20089;-67
2022/07/03 11:21:21;;;;;;;4.18;1.52;;;20.00;93.50;;;;;;5045001;28;20029;-67
2022/07/03 11:24:14;;;;;;;2.78;1.50;;;20.00;93.50;;;;;;5045231;28;20228;-67
2022/07/03 11:26:39;;;;;;;4.70;1.73;;;20.00;94.20;;;;;;5045111;28;20028;-69
2022/07/03 11:29:05;;;;;;;7.13;1.92;;;20.10;93.30;;;;;;5046241;28;20018;-67
2022/07/03 11:31:31;;;;;;;4.97;1.80;;;20.10;93.30;;;;;;5045946;28;20356;-68
2022/07/03 11:33:58;;;;;;;3.35;1.75;;;20.10;92.50;;;;;;5046119;28;20036;-67
2022/07/03 11:36:30;;;;;;;4.07;1.67;;;20.00;92.80;;;;;;5045577;28;20316;-68
2022/07/03 11:39:07;;;;;;;4.85;1.67;;;20.00;93.00;;;;;;5046020;28;20092;-67
2022/07/03 11:41:45;;;;;;;4.53;1.30;;;20.00;92.60;;;;;;5060993;28;20343;-67
2022/07/03 11:44:16;;;;;;;4.10;1.40;;;20.20;91.90;;;;;;5078120;28;20045;-69
2022/07/03 11:46:47;;;;;;;1.35;1.10;;;20.10;92.50;;;;;;5045529;28;20360;-69
2022/07/03 11:49:24;;;;;;;2.22;1.10;;;20.00;92.70;;;;;;5045756;28;20025;-67
2022/07/03 11:52:05;;;;;;;2.13;0.90;;;20.00;93.00;;;;;;5045275;28;20092;-68
2022/07/03 11:54:48;;;;;;;1.80;0.97;;;19.70;93.30;;;;;;5045454;28;20030;-68
2022/07/03 11:57:14;;;;;;;1.27;0.80;;;19.70;92.50;;;;;;5058867;28;20283;-68
2022/07/03 11:59:40;;;;;;;4.07;0.90;;;19.70;92.90;;;;;;5044696;28;20045;-68
2022/07/03 12:02:06;;;;;;;1.17;0.90;;;19.80;92.90;;;;;;5043979;28;20323;-69
2022/07/03 12:04:32;;;;;;;2.35;0.95;;;19.90;92.80;;;;;;5060680;28;20067;-68
2022/07/03 12:06:59;;;;;;;1.88;0.90;;;20.00;92.80;;;;;;5044183;28;20031;-68
2022/07/03 12:09:29;;;;;;;1.55;0.80;;;20.10;91.90;;;;;;5045487;28;20017;-68
2022/07/03 12:11:58;;;;;;;1.95;0.82;;;20.30;91.60;;;;;;5044899;28;20213;-68
2022/07/03 12:14:45;;;;;;;1.88;1.00;;;20.60;91.10;;;;;;5060492;28;20313;-68
2022/07/03 12:17:14;;;;;;;3.17;0.95;;;20.60;91.00;;;;;;5071566;28;20025;-68
2022/07/03 12:19:56;;;;;;;4.55;1.20;;;20.60;91.00;;;;;;5077605;28;20025;-68
2022/07/03 12:22:25;;;;;;;1.38;1.02;;;20.60;91.10;;;;;;5043955;28;20099;-69
2022/07/03 12:25:08;;;;;;;1.65;1.02;;;20.60;91.20;;;;;;5060193;28;20063;-68
2022/07/03 12:27:37;;;;;;;1.77;0.90;;;20.60;91.40;;;;;;5077232;28;20044;-66
2022/07/03 12:30:04;;;;;;;3.05;0.70;;;20.60;90.80;;;;;;5045112;28;20021;-69
2022/07/03 12:32:31;;;;;;;1.75;0.90;;;20.40;90.90;;;;;;5044755;28;20017;-70
2022/07/03 12:34:57;;;;;;;2.38;0.80;;;20.50;90.50;;;;;;5044807;28;20033;-67
2022/07/03 12:37:40;;;;;;;2.67;0.80;;;20.50;89.80;;;;;;5043833;28;20274;-69
2022/07/03 12:40:09;;;;;;;2.20;0.50;;;20.40;88.30;;;;;;5043864;28;20048;-68
2022/07/03 12:42:52;;;;;;;1.00;0.90;;;20.40;87.70;;;;;;5043523;28;20044;-68
2022/07/03 12:45:20;;;;;;;1.15;0.98;;;20.50;88.20;;;;;;5044762;28;20025;-68
2022/07/03 12:48:00;;;;;;;0.82;0.60;;;20.60;87.50;;;;;;5044750;28;20037;-68
2022/07/03 12:50:42;;;;;;;0.70;0.40;;;20.80;85.90;;;;;;5027089;28;20062;-69
2022/07/03 12:53:08;;;;;;;1.77;1.00;;;20.90;84.50;;;;;;5042869;28;20358;-67
2022/07/03 12:55:34;;;;;;;2.92;2.30;;;21.00;85.50;;;;;;5043125;28;20057;-68
2022/07/03 13:01:26;;;;;;;2.97;1.65;;;21.20;84.30;;;;;;5029730;28;20299;-68
2022/07/03 13:03:52;;;;;;;1.63;0.63;;;21.30;84.60;;;;;;5044232;28;20025;-68
2022/07/03 13:06:19;;;;;;;1.95;0.70;;;21.40;84.30;;;;;;5044515;28;20123;-66
2022/07/03 13:09:02;;;;;;;0.80;0.40;;;21.30;83.70;;;;;;5043226;28;20029;-67
2022/07/03 13:11:36;;;;;;;1.25;0.30;;;21.20;84.70;;;;;;5044351;28;20043;-66
2022/07/03 13:14:16;;;;;;;2.10;0.52;;;21.00;85.40;;;;;;5044152;28;20021;-67
2022/07/03 13:16:44;;;;;;;1.80;0.55;;;21.00;86.60;;;;;;5042453;28;20204;-68